Leandra — V2EB4 — position and weather

sailwx.info

Track history (hours):
 
Tides and Currents Weather Stations Pressure Air Temp Water Temp Dewpoint Dewpoint Depression Visibility Wind Speed Wind Dir Waves Ship Positions

Leandra

Last reported at 2017-Mar-22 19:26 UTC. Time now 2017-Mar-30 02:35 UTC.
Position N 52°02' E 003°54'.

Length 146 m; draft 6.8 m.

Type: Ship. MMSI: 305375000.

Date/timePositionNaut miles runAvg speedWind from/ knotsBaromVisibWave heightAir tempDewpointWater temp
2017-Mar-22 19:26N 52°02' E 003°54'1011.6
2017-Mar-22 18:34N 51°58' E 004°09'1110.6
2017-Mar-22 17:34N 51°53' E 004°24'0 0.4
2017-Mar-22 16:29N 51°53' E 004°25'0 0.0
2017-Mar-22 15:29N 51°53' E 004°25'0 0.0
2017-Mar-22 14:29N 51°53' E 004°25'0 0.0
2017-Mar-22 13:23N 51°53' E 004°25'0 0.0
2017-Mar-22 12:29N 51°53' E 004°25'0 0.0
2017-Mar-22 11:17N 51°53' E 004°25'0 0.0
2017-Mar-22 10:23N 51°53' E 004°25'0 0.0
2017-Mar-22 09:29N 51°53' E 004°25'0 0.0
2017-Mar-22 08:17N 51°53' E 004°25'0 0.0
2017-Mar-22 07:29N 51°53' E 004°25'0 0.0
2017-Mar-22 06:26N 51°53' E 004°25'0 0.0
2017-Mar-22 05:32N 51°53' E 004°25'0 0.0
2017-Mar-22 04:32N 51°53' E 004°25'0 0.0
2017-Mar-22 03:32N 51°53' E 004°25'0 0.0
2017-Mar-22 02:29N 51°53' E 004°25'0 0.0
2017-Mar-22 01:32N 51°53' E 004°25'0 0.0
2017-Mar-22 00:29N 51°53' E 004°25'0 0.0
2017-Mar-21 23:32N 51°53' E 004°25'0 0.0
2017-Mar-21 22:32N 51°53' E 004°25'0 0.0
2017-Mar-21 21:29N 51°53' E 004°25'0 0.0
2017-Mar-21 20:29N 51°53' E 004°25'0 0.0
2017-Mar-21 19:32N 51°53' E 004°25'0 0.0
2017-Mar-21 18:32N 51°53' E 004°25'0 0.0
2017-Mar-21 17:32N 51°53' E 004°25'0 0.0
2017-Mar-21 15:29N 51°53' E 004°25'0 0.0
2017-Mar-21 14:17N 51°53' E 004°25'0 0.0
2017-Mar-21 13:23N 51°53' E 004°25'0 0.0
2017-Mar-21 11:29N 51°53' E 004°25'0 0.0
2017-Mar-21 10:23N 51°53' E 004°25'0 0.0
2017-Mar-21 09:11N 51°53' E 004°25'0 0.0
2017-Mar-21 08:29N 51°53' E 004°25'0 0.0
2017-Mar-21 07:29N 51°53' E 004°25'0 0.0
2017-Mar-21 06:26N 51°53' E 004°25'0 0.0
2017-Mar-21 05:29N 51°53' E 004°25'0 0.0
2017-Mar-21 04:32N 51°53' E 004°25'0 0.0
2017-Mar-21 03:29N 51°53' E 004°25'0 0.0
2017-Mar-21 02:32N 51°53' E 004°25'0 0.0
2017-Mar-21 01:29N 51°53' E 004°25'0 0.0
2017-Mar-21 00:32N 51°53' E 004°25'0 0.0
2017-Mar-20 23:32N 51°53' E 004°25'0 0.0
2017-Mar-20 22:29N 51°53' E 004°25'0 0.0
2017-Mar-20 21:32N 51°53' E 004°25'0 0.0
2017-Mar-20 18:26N 51°53' E 004°25'0 0.0
2017-Mar-20 07:29N 51°53' E 004°25'0 0.0
2017-Mar-20 06:29N 51°53' E 004°25'0 0.0
2017-Mar-20 05:29N 51°53' E 004°25'0 0.0
2017-Mar-20 04:29N 51°53' E 004°25'3 3.0
2017-Mar-20 03:33N 51°54' E 004°21'10 9.8
2017-Mar-20 02:33N 51°59' E 004°07'  
2017-Mar-17 16:32N 62°13' E 004°34'1110.7
2017-Mar-17 15:33N 62°20' E 004°51'1110.6
2017-Mar-17 14:33N 62°27' E 005°08'1110.5
2017-Mar-17 13:33N 62°34' E 005°25'10 9.9
2017-Mar-17 12:33N 62°40' E 005°41'9 9.2
2017-Mar-17 11:33N 62°47' E 005°56'8 8.2
2017-Mar-17 10:33N 62°51' E 006°11'8 8.0
2017-Mar-17 09:33N 62°55' E 006°26'8 8.3
2017-Mar-17 08:33N 62°60' E 006°41'7 7.1
2017-Mar-17 07:33N 63°04' E 006°54'6 5.6
2017-Mar-17 06:32N 63°08' E 007°04'6 5.6
2017-Mar-17 05:33N 63°11' E 007°13'6 6.5
2017-Mar-17 04:33N 63°14' E 007°26'8 8.1
2017-Mar-17 03:33N 63°13' E 007°44'1111.3
2017-Mar-17 02:33N 63°02' E 007°42'4 3.8
2017-Mar-17 01:31N 62°58' E 007°44'0 0.0
2017-Mar-17 00:31N 62°58' E 007°44'0 0.0
2017-Mar-16 23:31N 62°58' E 007°44'2 1.6
2017-Mar-16 22:33N 62°60' E 007°44'1110.9
2017-Mar-16 21:33N 63°11' E 007°44'7 7.3
2017-Mar-16 20:34N 63°17' E 007°36'6 5.7
2017-Mar-16 19:33N 63°23' E 007°36'6 5.6
2017-Mar-16 18:33N 63°28' E 007°38'8 8.6
2017-Mar-16 17:33N 63°36' E 007°46'8 8.3
2017-Mar-16 16:33N 63°43' E 007°56'8 8.2
2017-Mar-16 15:33N 63°50' E 008°06'64 9.1
2017-Mar-16 08:33N 64°30' E 009°60'1010.2
2017-Mar-16 07:33N 64°35' E 010°21'1110.9
2017-Mar-16 06:33N 64°40' E 010°43'1212.2
2017-Mar-16 05:33N 64°48' E 011°06'1212.0
2017-Mar-16 04:33N 64°56' E 011°26'1212.4
2017-Mar-16 03:33N 65°05' E 011°47'1312.8
2017-Mar-16 02:32N 65°17' E 011°58'1010.5
2017-Mar-16 01:33N 65°27' E 011°56'1212.4
2017-Mar-16 00:33N 65°38' E 012°12'1212.4
2017-Mar-15 23:33N 65°48' E 012°27'1312.6
2017-Mar-15 22:33N 65°58' E 012°47'  
Track history (hours):
 
Tides and Currents Weather Stations Pressure Air Temp Water Temp Dewpoint Dewpoint Depression Visibility Wind Speed Wind Dir Waves Ship Positions

Leandra

Last reported at 2017-Mar-22 19:26 UTC. Time now 2017-Mar-30 02:35 UTC.
Position N 52°02' E 003°54'.

Length 146 m; draft 6.8 m.

Type: Ship. MMSI: 305375000.

Date/timePositionNaut miles runAvg speedWind from/ knotsBaromVisibWave heightAir tempDewpointWater temp
2017-Mar-22 19:26N 52°02' E 003°54'1011.6
2017-Mar-22 18:34N 51°58' E 004°09'1110.6
2017-Mar-22 17:34N 51°53' E 004°24'0 0.4
2017-Mar-22 16:29N 51°53' E 004°25'0 0.0
2017-Mar-22 15:29N 51°53' E 004°25'0 0.0
2017-Mar-22 14:29N 51°53' E 004°25'0 0.0
2017-Mar-22 13:23N 51°53' E 004°25'0 0.0
2017-Mar-22 12:29N 51°53' E 004°25'0 0.0
2017-Mar-22 11:17N 51°53' E 004°25'0 0.0
2017-Mar-22 10:23N 51°53' E 004°25'0 0.0
2017-Mar-22 09:29N 51°53' E 004°25'0 0.0
2017-Mar-22 08:17N 51°53' E 004°25'0 0.0
2017-Mar-22 07:29N 51°53' E 004°25'0 0.0
2017-Mar-22 06:26N 51°53' E 004°25'0 0.0
2017-Mar-22 05:32N 51°53' E 004°25'0 0.0
2017-Mar-22 04:32N 51°53' E 004°25'0 0.0
2017-Mar-22 03:32N 51°53' E 004°25'0 0.0
2017-Mar-22 02:29N 51°53' E 004°25'0 0.0
2017-Mar-22 01:32N 51°53' E 004°25'0 0.0
2017-Mar-22 00:29N 51°53' E 004°25'0 0.0
2017-Mar-21 23:32N 51°53' E 004°25'0 0.0
2017-Mar-21 22:32N 51°53' E 004°25'0 0.0
2017-Mar-21 21:29N 51°53' E 004°25'0 0.0
2017-Mar-21 20:29N 51°53' E 004°25'0 0.0
2017-Mar-21 19:32N 51°53' E 004°25'0 0.0
2017-Mar-21 18:32N 51°53' E 004°25'0 0.0
2017-Mar-21 17:32N 51°53' E 004°25'0 0.0
2017-Mar-21 15:29N 51°53' E 004°25'0 0.0
2017-Mar-21 14:17N 51°53' E 004°25'0 0.0
2017-Mar-21 13:23N 51°53' E 004°25'0 0.0
2017-Mar-21 11:29N 51°53' E 004°25'0 0.0
2017-Mar-21 10:23N 51°53' E 004°25'0 0.0
2017-Mar-21 09:11N 51°53' E 004°25'0 0.0
2017-Mar-21 08:29N 51°53' E 004°25'0 0.0
2017-Mar-21 07:29N 51°53' E 004°25'0 0.0
2017-Mar-21 06:26N 51°53' E 004°25'0 0.0
2017-Mar-21 05:29N 51°53' E 004°25'0 0.0
2017-Mar-21 04:32N 51°53' E 004°25'0 0.0
2017-Mar-21 03:29N 51°53' E 004°25'0 0.0
2017-Mar-21 02:32N 51°53' E 004°25'0 0.0
2017-Mar-21 01:29N 51°53' E 004°25'0 0.0
2017-Mar-21 00:32N 51°53' E 004°25'0 0.0
2017-Mar-20 23:32N 51°53' E 004°25'0 0.0
2017-Mar-20 22:29N 51°53' E 004°25'0 0.0
2017-Mar-20 21:32N 51°53' E 004°25'0 0.0
2017-Mar-20 18:26N 51°53' E 004°25'0 0.0
2017-Mar-20 07:29N 51°53' E 004°25'0 0.0
2017-Mar-20 06:29N 51°53' E 004°25'0 0.0
2017-Mar-20 05:29N 51°53' E 004°25'0 0.0
2017-Mar-20 04:29N 51°53' E 004°25'3 3.0
2017-Mar-20 03:33N 51°54' E 004°21'10 9.8
2017-Mar-20 02:33N 51°59' E 004°07'  
2017-Mar-17 16:32N 62°13' E 004°34'1110.7
2017-Mar-17 15:33N 62°20' E 004°51'1110.6
2017-Mar-17 14:33N 62°27' E 005°08'1110.5
2017-Mar-17 13:33N 62°34' E 005°25'10 9.9
2017-Mar-17 12:33N 62°40' E 005°41'9 9.2
2017-Mar-17 11:33N 62°47' E 005°56'8 8.2
2017-Mar-17 10:33N 62°51' E 006°11'8 8.0
2017-Mar-17 09:33N 62°55' E 006°26'8 8.3
2017-Mar-17 08:33N 62°60' E 006°41'7 7.1
2017-Mar-17 07:33N 63°04' E 006°54'6 5.6
2017-Mar-17 06:32N 63°08' E 007°04'6 5.6
2017-Mar-17 05:33N 63°11' E 007°13'6 6.5
2017-Mar-17 04:33N 63°14' E 007°26'8 8.1
2017-Mar-17 03:33N 63°13' E 007°44'1111.3
2017-Mar-17 02:33N 63°02' E 007°42'4 3.8
2017-Mar-17 01:31N 62°58' E 007°44'0 0.0
2017-Mar-17 00:31N 62°58' E 007°44'0 0.0
2017-Mar-16 23:31N 62°58' E 007°44'2 1.6
2017-Mar-16 22:33N 62°60' E 007°44'1110.9
2017-Mar-16 21:33N 63°11' E 007°44'7 7.3
2017-Mar-16 20:34N 63°17' E 007°36'6 5.7
2017-Mar-16 19:33N 63°23' E 007°36'6 5.6
2017-Mar-16 18:33N 63°28' E 007°38'8 8.6
2017-Mar-16 17:33N 63°36' E 007°46'8 8.3
2017-Mar-16 16:33N 63°43' E 007°56'8 8.2
2017-Mar-16 15:33N 63°50' E 008°06'64 9.1
2017-Mar-16 08:33N 64°30' E 009°60'1010.2
2017-Mar-16 07:33N 64°35' E 010°21'1110.9
2017-Mar-16 06:33N 64°40' E 010°43'1212.2
2017-Mar-16 05:33N 64°48' E 011°06'1212.0
2017-Mar-16 04:33N 64°56' E 011°26'1212.4
2017-Mar-16 03:33N 65°05' E 011°47'1312.8
2017-Mar-16 02:32N 65°17' E 011°58'1010.5
2017-Mar-16 01:33N 65°27' E 011°56'1212.4
2017-Mar-16 00:33N 65°38' E 012°12'1212.4
2017-Mar-15 23:33N 65°48' E 012°27'1312.6
2017-Mar-15 22:33N 65°58' E 012°47'  

Dump ship's entire track history